Погода Воротневона 2 недели

Тверская область, Россия

24 мая-06 июня
  • 24мая
    Сегодня
    +9°
    +24°
    Ясно и безоблачно
    ВремяПогодаТемператураВлажностьДавлениеВетер, м/сВероятность осадков
    00:00Ясно и безоблачно+7°C68 %762 мм1.8 м/с2 %
    03:00Ясно и безоблачно+6°C66 %762 мм2.1 м/с2 %
    06:00Ясно и безоблачно+9°C65 %763 мм2.4 м/с2 %
    09:00Облачно с прояснениями+18°C53 %763 мм1.9 м/с2 %
    12:00Небольшая облачность+22°C36 %763 мм2.0 м/с2 %
    15:00Ясно и безоблачно+24°C33 %762 мм1.8 м/с2 %
    18:00Ясно и безоблачно+23°C34 %761 мм1.7 м/с2 %
    21:00Ясно и безоблачно+16°C47 %761 мм2.4 м/с2 %
  • 25мая
    Суббота
    +10°
    +24°
    Ясно и безоблачно
    ВремяПогодаТемператураВлажностьДавлениеВетер, м/сВероятность осадков
    00:00Ясно и безоблачно+11°C55 %761 мм3.2 м/с2 %
    03:00Ясно и безоблачно+9°C61 %761 мм3.2 м/с2 %
    06:00Ясно и безоблачно+12°C62 %761 мм3.3 м/с2 %
    09:00Ясно и безоблачно+19°C45 %761 мм3.5 м/с2 %
    12:00Ясно и безоблачно+22°C32 %760 мм4.3 м/с2 %
    15:00Ясно и безоблачно+23°C31 %758 мм4.3 м/с2 %
    18:00Ясно и безоблачно+23°C33 %757 мм4.1 м/с2 %
    21:00Ясно и безоблачно+18°C48 %757 мм3.2 м/с2 %
  • 26мая
    Воскресенье
    +5°
    +21°
    Облачно с прояснениями
    ВремяПогодаТемператураВлажностьДавлениеВетер, м/сВероятность осадков
    00:00Ясно и безоблачно+13°C56 %757 мм2.9 м/с2 %
    03:00Ясно и безоблачно+11°C71 %757 мм2.0 м/с4 %
    06:00Облачно с прояснениями+13°C85 %757 мм2.3 м/с16 %
    09:00Пасмурно, ливень+17°C79 %758 мм3.3 м/с42 %
    12:00Облачно с прояснениями+20°C51 %759 мм3.2 м/с30 %
    15:00Облачно с прояснениями+20°C38 %759 мм3.5 м/с16 %
    18:00Облачно с прояснениями+19°C38 %759 мм3.5 м/с7 %
    21:00Ясно и безоблачно+14°C53 %760 мм2.6 м/с2 %
  • 27мая
    Понедельник
    +7°
    +22°
    Небольшая облачность
    ВремяПогодаТемператураВлажностьДавлениеВетер, м/сВероятность осадков
    00:00Ясно и безоблачно+8°C64 %760 мм2.4 м/с2 %
    03:00Ясно и безоблачно+6°C64 %761 мм2.6 м/с2 %
    06:00Ясно и безоблачно+9°C64 %762 мм2.5 м/с2 %
    09:00Ясно и безоблачно+17°C42 %762 мм2.6 м/с2 %
    12:00Небольшая облачность+20°C37 %761 мм1.9 м/с2 %
    15:00Небольшая облачность+21°C35 %760 мм1.7 м/с2 %
    18:00Ясно и безоблачно+22°C37 %759 мм1.6 м/с2 %
    21:00Ясно и безоблачно+15°C57 %758 мм2.0 м/с2 %
  • 28мая
    Вторник
    +9°
    +25°
    Ясно и безоблачно
    ВремяПогодаТемператураВлажностьДавлениеВетер, м/сВероятность осадков
    00:00Ясно и безоблачно+10°C67 %758 мм2.2 м/с2 %
    03:00Ясно и безоблачно+8°C74 %758 мм2.2 м/с2 %
    06:00Ясно и безоблачно+11°C76 %758 мм1.5 м/с2 %
    09:00Ясно и безоблачно+21°C51 %758 мм0.9 м/с2 %
    12:00Ясно и безоблачно+24°C34 %758 мм0.9 м/с9 %
    15:00Ясно и безоблачно+25°C31 %757 мм0.9 м/с10 %
    18:00Ясно и безоблачно+25°C33 %756 мм0.3 м/с9 %
    21:00Ясно и безоблачно+18°C56 %755 мм2.2 м/с6 %
Мы используем cookies
Соглашаюсь